sensor_id;sensor_type;location;lat;lon;timestamp;P1;durP1;ratioP1;P2;durP2;ratioP2
49530;SDS011;74875;30.696;104.060;2024-03-23T00:52:32;38.38;;;23.45;;
49530;SDS011;74875;30.696;104.060;2024-03-23T00:54:59;43.88;;;24.10;;
49530;SDS011;74875;30.696;104.060;2024-03-23T00:57:26;39.15;;;23.27;;
49530;SDS011;74875;30.696;104.060;2024-03-23T00:59:52;37.38;;;22.13;;
49530;SDS011;74875;30.696;104.060;2024-03-23T01:02:19;36.05;;;22.05;;
49530;SDS011;74875;30.696;104.060;2024-03-23T01:04:46;37.83;;;22.73;;
49530;SDS011;74875;30.696;104.060;2024-03-23T01:07:13;36.55;;;20.35;;
49530;SDS011;74875;30.696;104.060;2024-03-23T01:09:40;35.60;;;20.85;;
49530;SDS011;74875;30.696;104.060;2024-03-23T01:12:06;35.45;;;22.38;;
49530;SDS011;74875;30.696;104.060;2024-03-23T01:14:33;41.95;;;23.98;;
49530;SDS011;74875;30.696;104.060;2024-03-23T01:17:02;40.50;;;23.35;;
49530;SDS011;74875;30.696;104.060;2024-03-23T01:19:32;40.97;;;24.17;;
49530;SDS011;74875;30.696;104.060;2024-03-23T01:21:59;46.35;;;25.92;;
49530;SDS011;74875;30.696;104.060;2024-03-23T01:24:26;51.67;;;32.45;;
49530;SDS011;74875;30.696;104.060;2024-03-23T01:26:53;62.83;;;37.67;;
49530;SDS011;74875;30.696;104.060;2024-03-23T01:29:20;64.28;;;39.80;;
49530;SDS011;74875;30.696;104.060;2024-03-23T01:31:47;56.83;;;36.13;;
49530;SDS011;74875;30.696;104.060;2024-03-23T01:34:17;54.13;;;34.28;;
49530;SDS011;74875;30.696;104.060;2024-03-23T01:36:47;57.58;;;35.85;;
49530;SDS011;74875;30.696;104.060;2024-03-23T01:39:16;59.70;;;35.75;;
49530;SDS011;74875;30.696;104.060;2024-03-23T01:41:43;58.50;;;34.25;;
49530;SDS011;74875;30.696;104.060;2024-03-23T01:44:10;64.03;;;37.25;;
49530;SDS011;74875;30.696;104.060;2024-03-23T01:46:37;63.20;;;36.28;;
49530;SDS011;74875;30.696;104.060;2024-03-23T01:49:04;59.17;;;35.80;;
49530;SDS011;74875;30.696;104.060;2024-03-23T01:51:31;57.83;;;33.75;;
49530;SDS011;74875;30.696;104.060;2024-03-23T01:53:58;55.17;;;31.90;;
49530;SDS011;74875;30.696;104.060;2024-03-23T01:56:28;53.50;;;32.78;;
49530;SDS011;74875;30.696;104.060;2024-03-23T01:58:55;57.55;;;33.63;;
49530;SDS011;74875;30.696;104.060;2024-03-23T02:01:22;59.60;;;35.10;;
49530;SDS011;74875;30.696;104.060;2024-03-23T02:03:49;64.13;;;38.63;;
49530;SDS011;74875;30.696;104.060;2024-03-23T02:06:16;65.63;;;38.95;;
49530;SDS011;74875;30.696;104.060;2024-03-23T02:08:43;68.32;;;40.60;;
49530;SDS011;74875;30.696;104.060;2024-03-23T02:11:10;60.28;;;38.38;;
49530;SDS011;74875;30.696;104.060;2024-03-23T02:13:38;55.97;;;33.05;;
49530;SDS011;74875;30.696;104.060;2024-03-23T02:16:05;60.40;;;36.47;;
49530;SDS011;74875;30.696;104.060;2024-03-23T02:18:32;63.90;;;38.50;;
49530;SDS011;74875;30.696;104.060;2024-03-23T02:20:59;54.53;;;33.72;;
49530;SDS011;74875;30.696;104.060;2024-03-23T02:23:26;58.97;;;36.45;;
49530;SDS011;74875;30.696;104.060;2024-03-23T02:25:53;73.05;;;40.70;;
49530;SDS011;74875;30.696;104.060;2024-03-23T02:28:20;67.10;;;41.53;;
49530;SDS011;74875;30.696;104.060;2024-03-23T02:30:51;74.60;;;42.00;;
49530;SDS011;74875;30.696;104.060;2024-03-23T02:33:18;69.32;;;45.78;;
49530;SDS011;74875;30.696;104.060;2024-03-23T02:35:47;71.82;;;42.92;;
49530;SDS011;74875;30.696;104.060;2024-03-23T02:38:15;72.07;;;45.63;;
49530;SDS011;74875;30.696;104.060;2024-03-23T02:40:42;72.75;;;44.28;;
49530;SDS011;74875;30.696;104.060;2024-03-23T02:43:11;87.60;;;49.30;;
49530;SDS011;74875;30.696;104.060;2024-03-23T02:45:38;78.88;;;47.25;;
49530;SDS011;74875;30.696;104.060;2024-03-23T02:48:05;83.28;;;46.13;;
49530;SDS011;74875;30.696;104.060;2024-03-23T02:50:32;80.85;;;49.42;;
49530;SDS011;74875;30.696;104.060;2024-03-23T02:52:59;88.53;;;48.08;;
49530;SDS011;74875;30.696;104.060;2024-03-23T02:55:25;74.70;;;47.72;;
49530;SDS011;74875;30.696;104.060;2024-03-23T02:57:52;83.10;;;47.97;;
49530;SDS011;74875;30.696;104.060;2024-03-23T03:00:20;81.93;;;50.65;;
49530;SDS011;74875;30.696;104.060;2024-03-23T03:02:47;85.78;;;46.08;;
49530;SDS011;74875;30.696;104.060;2024-03-23T03:05:14;82.50;;;47.42;;
49530;SDS011;74875;30.696;104.060;2024-03-23T03:07:41;91.72;;;48.80;;
49530;SDS011;74875;30.696;104.060;2024-03-23T03:10:07;98.13;;;51.72;;
49530;SDS011;74875;30.696;104.060;2024-03-23T03:12:37;81.55;;;48.03;;
49530;SDS011;74875;30.696;104.060;2024-03-23T03:15:04;85.72;;;45.78;;
49530;SDS011;74875;30.696;104.060;2024-03-23T03:17:31;99.43;;;48.45;;
